createdAt,value
2023-09-14T00:01:29.155Z,100884.12
2023-09-14T00:04:35.519Z,100887.56
2023-09-14T00:07:43.366Z,100886.73
2023-09-14T00:10:49.918Z,100882.42
2023-09-14T00:13:56.618Z,100880.38
2023-09-14T00:17:03.492Z,100879.53
2023-09-14T00:20:09.326Z,100880.23
2023-09-14T00:23:15.279Z,100883.16
2023-09-14T00:26:22.206Z,100884.72
2023-09-14T00:29:27.522Z,100877.35
2023-09-14T00:32:32.482Z,100880.98
2023-09-14T00:35:39.945Z,100880.51
2023-09-14T00:38:46.635Z,100878.45
2023-09-14T00:41:53.194Z,100881.70
2023-09-14T00:44:59.976Z,100876.21
2023-09-14T00:48:10.099Z,100871.76
2023-09-14T00:51:18.148Z,100874.34
2023-09-14T00:54:24.510Z,100871.95
2023-09-14T00:57:31.885Z,100864.56
2023-09-14T01:00:39.153Z,100861.14
2023-09-14T01:03:45.153Z,100862.01
2023-09-14T01:06:52.051Z,100859.63
2023-09-14T01:09:58.502Z,100858.29
2023-09-14T01:13:07.253Z,100852.47
2023-09-14T01:16:33.373Z,100856.09
2023-09-14T01:19:58.667Z,100862.45
2023-09-14T01:23:18.336Z,100850.63
2023-09-14T01:26:23.896Z,100850.81
2023-09-14T01:29:30.568Z,100845.32
2023-09-14T01:32:36.565Z,100849.77
2023-09-14T01:35:45.667Z,100848.39
2023-09-14T01:38:50.801Z,100842.21
2023-09-14T01:41:58.191Z,100847.20
2023-09-14T01:45:05.469Z,100847.03
2023-09-14T01:48:12.362Z,100851.51
2023-09-14T01:51:18.418Z,100858.20
2023-09-14T01:54:23.898Z,100857.50
2023-09-14T01:57:28.910Z,100856.81
2023-09-14T02:00:34.693Z,100847.52
2023-09-14T02:03:40.824Z,100846.65
2023-09-14T02:06:48.269Z,100852.47
2023-09-14T02:09:54.583Z,100853.34
2023-09-14T02:13:01.283Z,100849.72
2023-09-14T02:16:08.200Z,100841.16
2023-09-14T02:19:15.447Z,100844.59
2023-09-14T02:22:22.518Z,100843.91
2023-09-14T02:25:29.417Z,100836.02
2023-09-14T02:28:35.559Z,100847.70
2023-09-14T02:31:41.982Z,100850.09
2023-09-14T02:34:49.227Z,100848.58
2023-09-14T02:37:56.619Z,100841.02
2023-09-14T02:41:01.764Z,100829.20
2023-09-14T02:44:08.731Z,100825.22
2023-09-14T02:47:15.192Z,100821.93
2023-09-14T02:50:21.684Z,100823.33
2023-09-14T02:53:28.869Z,100822.61
2023-09-14T02:56:35.537Z,100822.47
2023-09-14T02:59:41.300Z,100824.36
2023-09-14T03:02:48.739Z,100828.98
2023-09-14T03:05:56.584Z,100833.29
2023-09-14T03:09:03.764Z,100835.71
2023-09-14T03:12:11.099Z,100839.29
2023-09-14T03:15:17.594Z,100830.54
2023-09-14T03:18:23.797Z,100830.21
2023-09-14T03:21:43.944Z,100831.05
2023-09-14T03:24:50.622Z,100841.53
2023-09-14T03:27:57.481Z,100845.66
2023-09-14T03:31:03.802Z,100843.41
2023-09-14T03:34:10.315Z,100848.77
2023-09-14T03:37:16.958Z,100844.83
2023-09-14T03:40:22.923Z,100836.08
2023-09-14T03:43:29.908Z,100836.80
2023-09-14T03:46:36.383Z,100836.95
2023-09-14T03:49:43.362Z,100840.59
2023-09-14T03:52:50.051Z,100845.22
2023-09-14T03:55:56.214Z,100851.05
2023-09-14T03:59:04.516Z,100839.69
2023-09-14T04:02:11.195Z,100840.23
2023-09-14T04:05:30.762Z,100843.99
2023-09-14T04:08:37.759Z,100843.63
2023-09-14T04:11:42.785Z,100842.22
2023-09-14T04:14:52.661Z,100844.45
2023-09-14T04:17:59.343Z,100848.53
2023-09-14T04:21:06.646Z,100841.43
2023-09-14T04:24:12.699Z,100847.70
2023-09-14T04:27:18.492Z,100847.09
2023-09-14T04:30:24.671Z,100840.84
2023-09-14T04:33:31.422Z,100846.78
2023-09-14T04:36:39.107Z,100843.09
2023-09-14T04:39:46.184Z,100835.14
2023-09-14T04:42:51.453Z,100838.17
2023-09-14T04:46:00.551Z,100840.58
2023-09-14T04:49:07.354Z,100843.97
2023-09-14T04:52:12.473Z,100853.23
2023-09-14T04:55:18.708Z,100848.22
2023-09-14T04:58:26.750Z,100838.70
2023-09-14T05:01:33.360Z,100839.32
2023-09-14T05:04:41.013Z,100841.35
2023-09-14T05:07:48.862Z,100842.48
2023-09-14T05:10:57.103Z,100837.63
2023-09-14T05:14:03.353Z,100841.86
2023-09-14T05:17:08.708Z,100842.28
2023-09-14T05:20:16.701Z,100835.50
2023-09-14T05:23:22.966Z,100833.20
2023-09-14T05:26:27.929Z,100829.80
2023-09-14T05:29:34.232Z,100835.89
2023-09-14T05:32:39.640Z,100838.00
2023-09-14T05:35:46.644Z,100842.19
2023-09-14T05:38:54.839Z,100835.31
2023-09-14T05:42:00.006Z,100832.40
2023-09-14T05:45:06.080Z,100827.56
2023-09-14T05:48:15.973Z,100827.36
2023-09-14T05:51:21.799Z,100823.05
2023-09-14T05:54:28.290Z,100833.52
2023-09-14T05:57:33.893Z,100824.81
2023-09-14T06:00:40.454Z,100818.90
2023-09-14T06:03:47.595Z,100806.23
2023-09-14T06:06:54.673Z,100806.55
2023-09-14T06:10:01.249Z,100805.58
2023-09-14T06:13:07.403Z,100810.02
2023-09-14T06:16:13.701Z,100819.81
2023-09-14T06:19:20.562Z,100809.46
2023-09-14T06:22:27.303Z,100814.13
2023-09-14T06:25:33.749Z,100816.20
2023-09-14T06:28:40.097Z,100821.27
2023-09-14T06:31:46.128Z,100825.99
2023-09-14T06:34:51.708Z,100826.98
2023-09-14T06:37:57.555Z,100828.17
2023-09-14T06:41:04.185Z,100825.11
2023-09-14T06:44:13.253Z,100828.42
2023-09-14T06:47:19.046Z,100821.64
2023-09-14T06:50:25.370Z,100820.27
2023-09-14T06:53:31.448Z,100814.83
2023-09-14T06:56:37.719Z,100819.00
2023-09-14T06:59:43.545Z,100826.25
2023-09-14T07:02:49.400Z,100825.16
2023-09-14T07:05:56.527Z,100825.48
2023-09-14T07:09:05.543Z,100825.97
2023-09-14T07:12:14.583Z,100832.08
2023-09-14T07:15:21.175Z,100825.52
2023-09-14T07:18:45.287Z,100816.47
2023-09-14T07:21:51.514Z,100831.80
2023-09-14T07:24:58.807Z,100821.66
2023-09-14T07:28:05.719Z,100831.13
2023-09-14T07:31:12.549Z,100831.09
2023-09-14T07:34:19.828Z,100831.95
2023-09-14T07:37:27.637Z,100827.86
2023-09-14T07:40:33.713Z,100827.97
2023-09-14T07:43:41.530Z,100829.84
2023-09-14T07:46:48.198Z,100835.77
2023-09-14T07:49:55.412Z,100824.44
2023-09-14T07:53:00.717Z,100819.61
2023-09-14T07:56:08.099Z,100829.20
2023-09-14T07:59:07.139Z,100816.77
2023-09-14T08:02:16.739Z,100823.30
2023-09-14T08:05:23.865Z,100814.72
2023-09-14T08:08:29.859Z,100812.43
2023-09-14T08:11:35.464Z,100810.79
2023-09-14T08:14:43.706Z,100808.09
2023-09-14T08:17:49.152Z,100806.30
2023-09-14T08:20:56.044Z,100805.41
2023-09-14T08:24:04.783Z,100800.27
2023-09-14T08:27:10.510Z,100793.41
2023-09-14T08:30:19.834Z,100792.67
2023-09-14T08:33:25.877Z,100787.13
2023-09-14T08:36:34.190Z,100782.34
2023-09-14T08:39:39.131Z,100777.56
2023-09-14T08:42:48.458Z,100775.57
2023-09-14T08:45:54.411Z,100778.61
2023-09-14T08:49:01.595Z,100765.73
2023-09-14T08:52:08.901Z,100768.55
2023-09-14T08:55:17.072Z,100766.63
2023-09-14T08:58:22.594Z,100777.89
2023-09-14T09:01:30.962Z,100761.36
2023-09-14T09:04:38.623Z,100765.05
2023-09-14T09:07:44.363Z,100763.95
2023-09-14T09:10:50.214Z,100758.47
2023-09-14T09:14:00.354Z,100751.87
2023-09-14T09:17:06.339Z,100764.38
2023-09-14T09:20:12.901Z,100750.94
2023-09-14T09:23:19.532Z,100755.15
2023-09-14T09:26:25.676Z,100756.27
2023-09-14T09:29:37.013Z,100748.58
2023-09-14T09:32:44.015Z,100750.27
2023-09-14T09:35:52.010Z,100755.35
2023-09-14T09:38:57.664Z,100748.68
2023-09-14T09:42:02.408Z,100758.08
2023-09-14T09:45:12.541Z,100748.87
2023-09-14T09:48:19.335Z,100751.73
2023-09-14T09:51:25.161Z,100747.60
2023-09-14T09:54:36.819Z,100749.98
2023-09-14T09:57:45.788Z,100753.12
2023-09-14T10:00:52.650Z,100748.94
2023-09-14T10:04:01.842Z,100750.34
2023-09-14T10:07:10.593Z,100747.18
2023-09-14T10:10:17.139Z,100740.03
2023-09-14T10:13:24.730Z,100733.70
2023-09-14T10:16:33.330Z,100728.95
2023-09-14T10:19:41.624Z,100731.70
2023-09-14T10:22:49.623Z,100725.55
2023-09-14T10:25:56.929Z,100726.14
2023-09-14T10:29:04.724Z,100729.84
2023-09-14T10:32:14.803Z,100716.16
2023-09-14T10:35:22.631Z,100715.63
2023-09-14T10:38:30.074Z,100723.82
2023-09-14T10:41:35.520Z,100726.11
2023-09-14T10:44:43.675Z,100730.72
2023-09-14T10:47:49.853Z,100716.48
2023-09-14T10:50:56.080Z,100723.02
2023-09-14T10:54:02.863Z,100716.72
2023-09-14T10:57:16.349Z,100710.64
2023-09-14T11:00:26.096Z,100712.52
2023-09-14T11:03:33.484Z,100702.84
2023-09-14T11:07:06.165Z,100706.09
2023-09-14T11:10:21.449Z,100705.92
2023-09-14T11:13:40.808Z,100699.68
2023-09-14T11:17:02.939Z,100697.41
2023-09-14T11:20:09.886Z,100694.16
2023-09-14T11:23:18.114Z,100682.14
2023-09-14T11:26:26.041Z,100681.88
2023-09-14T11:29:34.568Z,100683.98
2023-09-14T11:32:44.725Z,100674.86
2023-09-14T11:35:56.972Z,100676.91
2023-09-14T11:39:08.581Z,100672.52
2023-09-14T11:42:15.792Z,100663.95
2023-09-14T11:45:24.574Z,100661.41
2023-09-14T11:51:39.284Z,100661.57
2023-09-14T11:54:47.368Z,100652.17
2023-09-14T11:57:55.810Z,100654.16
2023-09-14T12:01:05.605Z,100651.70
2023-09-14T12:04:13.552Z,100647.52
2023-09-14T12:07:19.989Z,100642.18
2023-09-14T12:10:35.454Z,100636.59
2023-09-14T12:13:41.463Z,100630.13
2023-09-14T12:16:46.863Z,100621.16
2023-09-14T12:20:03.952Z,100629.58
2023-09-14T12:23:08.799Z,100628.48
2023-09-14T12:26:15.282Z,100623.72
2023-09-14T12:29:20.910Z,100621.18
2023-09-14T12:32:27.878Z,100623.72
2023-09-14T12:35:33.380Z,100623.99
2023-09-14T12:38:47.178Z,100618.92
2023-09-14T12:41:48.424Z,100617.48
2023-09-14T12:44:54.141Z,100619.45
2023-09-14T12:48:04.229Z,100615.78
2023-09-14T12:51:10.402Z,100606.78
2023-09-14T12:54:18.282Z,100613.53
2023-09-14T12:57:31.144Z,100611.57
2023-09-14T13:00:44.769Z,100614.95
2023-09-14T13:03:51.979Z,100611.08
2023-09-14T13:06:58.320Z,100619.25
2023-09-14T13:10:04.493Z,100620.95
2023-09-14T13:13:32.175Z,100608.06
2023-09-14T13:16:38.617Z,100606.11
2023-09-14T13:19:46.602Z,100603.61
2023-09-14T13:22:53.580Z,100596.83
2023-09-14T13:25:58.652Z,100602.70
2023-09-14T13:29:06.169Z,100598.46
2023-09-14T13:32:12.199Z,100590.59
2023-09-14T13:35:21.553Z,100593.67
2023-09-14T13:38:25.755Z,100584.67
2023-09-14T13:41:32.212Z,100588.83
2023-09-14T13:44:38.724Z,100578.95
2023-09-14T13:47:44.704Z,100579.75
2023-09-14T13:50:50.447Z,100576.91
2023-09-14T13:53:58.450Z,100570.68
2023-09-14T13:57:04.497Z,100566.72
2023-09-14T14:00:13.244Z,100570.03
2023-09-14T14:03:28.339Z,100566.09
2023-09-14T14:06:35.466Z,100563.84
2023-09-14T14:09:44.609Z,100566.37
2023-09-14T14:12:51.270Z,100561.88
2023-09-14T14:15:58.122Z,100565.55
2023-09-14T14:19:04.373Z,100558.53
2023-09-14T14:22:10.954Z,100562.44
2023-09-14T14:25:16.028Z,100561.03
2023-09-14T14:42:29.743Z,100554.54
2023-09-14T14:45:37.085Z,100549.92
2023-09-14T14:48:46.156Z,100543.32
2023-09-14T14:51:52.682Z,100539.86
2023-09-14T14:54:58.620Z,100540.86
2023-09-14T14:58:04.302Z,100533.20
2023-09-14T15:01:10.736Z,100539.47
2023-09-14T15:04:17.340Z,100549.72
2023-09-14T15:07:25.447Z,100543.17
2023-09-14T15:10:29.856Z,100541.09
2023-09-14T15:13:35.522Z,100538.16
2023-09-14T15:16:43.041Z,100538.03
2023-09-14T15:19:51.345Z,100533.69
2023-09-14T15:22:57.279Z,100529.30
2023-09-14T15:26:04.874Z,100531.40
2023-09-14T15:29:10.857Z,100540.46
2023-09-14T15:32:16.920Z,100543.88
2023-09-14T15:35:25.262Z,100551.20
2023-09-14T15:38:31.743Z,100555.98
2023-09-14T15:41:39.203Z,100568.03
2023-09-14T15:44:47.808Z,100567.20
2023-09-14T15:47:52.503Z,100565.80
2023-09-14T15:50:58.326Z,100569.44
2023-09-14T15:54:04.878Z,100574.95
2023-09-14T15:57:12.024Z,100578.31
2023-09-14T16:00:19.750Z,100574.44
2023-09-14T16:03:27.718Z,100575.32
2023-09-14T16:06:35.438Z,100577.34
2023-09-14T16:09:41.536Z,100575.18
2023-09-14T16:12:50.383Z,100575.80
2023-09-14T16:16:01.605Z,100572.23
2023-09-14T16:19:07.836Z,100579.54
2023-09-14T16:22:16.023Z,100584.08
2023-09-14T16:25:22.324Z,100584.73
2023-09-14T16:28:31.003Z,100594.84
2023-09-14T16:31:41.909Z,100595.52
2023-09-14T16:34:47.434Z,100603.66
2023-09-14T16:37:54.090Z,100599.55
2023-09-14T16:41:08.491Z,100600.18
2023-09-14T16:44:14.471Z,100612.04
2023-09-14T16:47:19.740Z,100610.22
2023-09-14T16:50:24.565Z,100608.92
2023-09-14T16:53:31.195Z,100603.37
2023-09-14T16:56:37.393Z,100607.02
2023-09-14T16:59:44.617Z,100608.15
2023-09-14T17:02:50.111Z,100616.73
2023-09-14T17:05:57.114Z,100615.84
2023-09-14T17:09:04.784Z,100614.91
2023-09-14T17:12:12.006Z,100624.66
2023-09-14T17:15:16.966Z,100627.69
2023-09-14T17:18:24.570Z,100635.45
2023-09-14T17:21:31.917Z,100637.37
2023-09-14T17:24:37.221Z,100640.68
2023-09-14T17:27:43.458Z,100639.59
2023-09-14T17:30:50.930Z,100634.78
2023-09-14T17:33:58.395Z,100637.48
2023-09-14T17:37:06.678Z,100637.14
2023-09-14T17:40:15.950Z,100634.34
2023-09-14T17:43:23.248Z,100648.51
2023-09-14T17:46:30.726Z,100641.48
2023-09-14T17:49:38.695Z,100645.39
2023-09-14T17:52:45.065Z,100650.34
2023-09-14T17:55:50.401Z,100658.94
2023-09-14T17:58:59.637Z,100653.34
2023-09-14T18:02:07.587Z,100665.64
2023-09-14T18:05:16.177Z,100665.16
2023-09-14T18:08:21.913Z,100658.48
2023-09-14T18:11:32.385Z,100661.92
2023-09-14T18:14:38.810Z,100656.93
2023-09-14T18:17:46.699Z,100662.75
2023-09-14T18:20:52.861Z,100667.46
2023-09-14T18:24:00.633Z,100662.22
2023-09-14T18:27:07.127Z,100666.20
2023-09-14T18:30:14.221Z,100663.87
2023-09-14T18:33:21.971Z,100663.98
2023-09-14T18:36:28.972Z,100664.42
2023-09-14T18:39:36.136Z,100667.63
2023-09-14T18:42:42.090Z,100668.17
2023-09-14T18:45:51.113Z,100669.35
2023-09-14T18:49:00.133Z,100674.37
2023-09-14T18:52:06.039Z,100678.33
2023-09-14T18:55:14.133Z,100670.59
2023-09-14T18:58:44.115Z,100671.23
2023-09-14T19:01:31.133Z,100672.41
2023-09-14T19:04:37.835Z,100680.51
2023-09-14T19:07:45.545Z,100676.14
2023-09-14T19:10:51.603Z,100671.04
2023-09-14T19:13:58.076Z,100672.11
2023-09-14T19:17:04.501Z,100667.02
2023-09-14T19:20:13.911Z,100671.56
2023-09-14T19:23:20.923Z,100662.86
2023-09-14T19:26:27.968Z,100671.69
2023-09-14T19:29:33.920Z,100668.27
2023-09-14T19:32:40.653Z,100664.98
2023-09-14T19:35:46.380Z,100674.03
2023-09-14T19:38:53.324Z,100670.73
2023-09-14T19:42:03.002Z,100669.88
2023-09-14T19:45:08.950Z,100669.66
2023-09-14T19:48:15.360Z,100673.50
2023-09-14T19:51:21.163Z,100681.28
2023-09-14T19:54:27.834Z,100675.97
2023-09-14T19:57:33.622Z,100680.73
2023-09-14T20:00:39.839Z,100677.52
2023-09-14T20:03:49.297Z,100669.83
2023-09-14T20:06:56.623Z,100668.57
2023-09-14T20:10:02.247Z,100661.13
2023-09-14T20:13:08.277Z,100657.06
2023-09-14T20:16:13.738Z,100652.17
2023-09-14T20:19:21.670Z,100641.95
2023-09-14T20:22:29.653Z,100645.67
2023-09-14T20:25:37.763Z,100636.42
2023-09-14T20:28:45.746Z,100637.15
2023-09-14T20:31:51.124Z,100638.88
2023-09-14T20:34:56.703Z,100634.52
2023-09-14T20:38:03.956Z,100641.52
2023-09-14T20:41:11.858Z,100636.95
2023-09-14T20:44:17.712Z,100636.73
2023-09-14T20:47:25.543Z,100640.45
2023-09-14T20:50:31.982Z,100637.69
2023-09-14T20:53:40.103Z,100637.17
2023-09-14T20:56:48.811Z,100633.32
2023-09-14T20:59:55.711Z,100637.17
2023-09-14T21:03:01.984Z,100640.66
2023-09-14T21:06:17.467Z,100635.69
2023-09-14T21:09:24.319Z,100640.36
2023-09-14T21:12:29.898Z,100640.66
2023-09-14T21:15:38.078Z,100639.28
2023-09-14T21:18:43.895Z,100637.81
2023-09-14T21:21:50.199Z,100640.06
2023-09-14T21:24:55.924Z,100637.59
2023-09-14T21:28:02.581Z,100640.80
2023-09-14T21:31:04.817Z,100642.80
2023-09-14T21:34:10.404Z,100633.77
2023-09-14T21:37:17.457Z,100634.09
2023-09-14T21:40:25.152Z,100627.80
2023-09-14T21:43:30.892Z,100625.46
2023-09-14T21:46:36.985Z,100633.85
2023-09-14T21:49:58.611Z,100639.20
2023-09-14T21:53:06.238Z,100639.82
2023-09-14T21:56:12.259Z,100640.69
2023-09-14T21:59:18.719Z,100647.39
2023-09-14T22:02:24.166Z,100648.89
2023-09-14T22:05:32.482Z,100649.02
2023-09-14T22:08:38.563Z,100653.60
2023-09-14T22:11:43.791Z,100650.41
2023-09-14T22:14:49.857Z,100641.33
2023-09-14T22:17:56.333Z,100641.66
2023-09-14T22:21:02.602Z,100633.66
2023-09-14T22:24:11.106Z,100626.22
2023-09-14T22:27:16.550Z,100623.97
2023-09-14T22:30:25.401Z,100616.00
2023-09-14T22:33:32.556Z,100614.62
2023-09-14T22:36:37.898Z,100612.69
2023-09-14T22:39:43.967Z,100601.39
2023-09-14T22:42:49.611Z,100601.73
2023-09-14T22:45:55.413Z,100593.20
2023-09-14T22:49:01.783Z,100598.52
2023-09-14T22:52:08.076Z,100599.69
2023-09-14T22:55:18.063Z,100601.38
2023-09-14T22:58:24.231Z,100609.80
2023-09-14T23:01:32.545Z,100620.11
2023-09-14T23:04:39.623Z,100614.14
2023-09-14T23:07:47.215Z,100615.11
2023-09-14T23:10:54.519Z,100611.91
2023-09-14T23:14:00.393Z,100609.53
2023-09-14T23:17:06.835Z,100607.09
2023-09-14T23:20:33.541Z,100619.98
2023-09-14T23:23:34.103Z,100633.06
2023-09-14T23:26:42.908Z,100638.60
2023-09-14T23:29:48.794Z,100648.30
2023-09-14T23:32:56.106Z,100689.84
2023-09-14T23:36:02.451Z,100683.70
2023-09-14T23:39:07.591Z,100683.05
2023-09-14T23:42:15.694Z,100674.67
2023-09-14T23:45:22.684Z,100676.27
2023-09-14T23:48:29.121Z,100704.05
2023-09-14T23:51:35.835Z,100691.93
2023-09-14T23:54:41.755Z,100692.58
2023-09-14T23:57:48.104Z,100693.58
